Stanley, ID

10:58 AM MDT on September 02, 2015 (GMT -0600)
Stanley | | Change Station
CLOSE
Current Station
Airport
Location: Stanley,
Elevation: 6496 ft
Nearby Weather Stations
Active Advisory: Fire Weather Warning

Elev 6496 ft 44.17 °N, 114.93 °W | Updated 7 minutes ago

Clear
Clear
67 °F
Feels Like 67 °F
N
0
Wind Variable Wind from North
Gusts 22 mph

Today
High -- | Low -- °F
--% Chance of Precip.
Yesterday
High -- | Low -- °F
Precip. -- in
7:03 AM 8:14 PM
Waning Gibbous, 79% visible
Pressure 29.75 in
Visibility -9999.0 miles
Clouds
Dew Point 31 °F
Humidity 26%
Rainfall 0.00 in
Snow Depth Not available.
UV Not available.
Pollen 8.00 out of 12
Air Quality Not available.
Flu Activity Not available.
METAR KSNT 021651Z AUTO 00000KT 19/M01 A3002 RMK AO1 SLP074 T01941006
Pressure 29.75 in
Visibility -9999.0 miles
Clouds
Dew Point 31 °F
Humidity 26%
Rainfall 0.00 in
Snow Depth Not available.
UV Not available.
Pollen 8.00 out of 12
Air Quality Not available.
Flu Activity Not available.
METAR KSNT 021651Z AUTO 00000KT 19/M01 A3002 RMK AO1 SLP074 T01941006

10-Day Weather Forecast

×

Almanac

Astronomy

Sep. 02, 2015 Rise Set
Actual Time
Civil Twilight
Nautical Twilight
Astronomical Twilight
Moon
Length of Visible Light
Length of Day
Tomorrow will be .
, % of the Moon is Illuminated

Today's Extremes

State Highs State Lows

Community

WunderPhotos

Upload Photos

1,851,783 photos uploaded!

WunderBlogs® & News

Nearby

Air Quality

  Air Quality AQ Index Pollutant
Not available.

Snow Depth

Station Depth Elevation

Earthquake Activity

City Distance Mag. Time & Date
Minimum magnitude displayed is 2.5.

Coastal Water Temperatures

Place Temperature

Stations

Nearby Weather Stations

Station Location Temp. Windchill Dew Point Humidity Wind Precip. Elev Updated Type
                   
Fire Weather Warning
Statement as of 3:49 AM MDT on September 02, 2015

... Red flag warning remains in effect from noon today to 9 PM MDT
this evening for gusty winds and low humidity for fire weather
zones 475 and 476...

* affected area... fire weather zone 475. Fire weather zone 476.

* Wind... southwest 20 mph gusting to 35 mph.

* Humidity... 10 to 20 percent

* thunderstorms... slight chance of thunderstorms Wednesday
evening for northern portions of fire zone 475.

* Impacts... any fires that develop will likely spread rapidly.
Outdoor burning is not recommended.

Precautionary/preparedness actions...

A red flag warning means that critical fire weather conditions
are either occurring now... or will shortly. Fires may experience
rapid rates of growth. Please advise the appropriate officials or
fire crews in the field of the red flag warning for portions of
southeast Idaho.